createdAt,value
2023-04-01T00:01:48.626Z,99.90
2023-04-01T00:04:16.861Z,99.90
2023-04-01T00:06:43.959Z,99.90
2023-04-01T00:09:10.835Z,99.90
2023-04-01T00:11:37.957Z,99.90
2023-04-01T00:14:05.669Z,99.90
2023-04-01T00:16:32.961Z,99.90
2023-04-01T00:19:00.751Z,99.90
2023-04-01T00:21:28.018Z,99.90
2023-04-01T00:23:55.010Z,99.90
2023-04-01T00:26:23.061Z,99.90
2023-04-01T00:28:50.736Z,99.90
2023-04-01T00:31:18.342Z,99.90
2023-04-01T00:33:45.671Z,99.90
2023-04-01T00:36:15.904Z,99.90
2023-04-01T00:38:44.012Z,99.90
2023-04-01T00:41:15.909Z,99.90
2023-04-01T00:43:45.119Z,99.90
2023-04-01T00:46:12.597Z,99.90
2023-04-01T00:48:59.930Z,99.90
2023-04-01T00:51:30.535Z,99.90
2023-04-01T00:53:59.835Z,99.90
2023-04-01T00:56:36.662Z,99.90
2023-04-01T00:59:09.488Z,99.90
2023-04-01T01:01:37.716Z,99.90
2023-04-01T01:04:04.792Z,99.90
2023-04-01T01:06:44.014Z,99.90
2023-04-01T01:09:30.422Z,99.90
2023-04-01T01:12:17.039Z,99.90
2023-04-01T01:15:17.002Z,99.90
2023-04-01T01:18:05.420Z,99.90
2023-04-01T01:21:11.579Z,99.90
2023-04-01T01:23:57.328Z,99.90
2023-04-01T01:26:57.982Z,99.90
2023-04-01T01:30:04.508Z,99.90
2023-04-01T01:32:40.492Z,99.90
2023-04-01T01:35:07.719Z,99.90
2023-04-01T01:37:35.029Z,99.90
2023-04-01T01:40:06.268Z,99.90
2023-04-01T01:42:36.670Z,99.90
2023-04-01T01:45:06.063Z,99.90
2023-04-01T01:47:35.661Z,99.90
2023-04-01T01:50:04.333Z,99.90
2023-04-01T01:52:31.474Z,99.90
2023-04-01T01:54:59.672Z,99.90
2023-04-01T01:57:39.110Z,99.90
2023-04-01T02:00:15.741Z,99.90
2023-04-01T02:02:45.048Z,99.90
2023-04-01T02:05:19.852Z,99.90
2023-04-01T02:07:53.123Z,99.90
2023-04-01T02:10:22.302Z,99.90
2023-04-01T02:12:51.929Z,99.90
2023-04-01T02:15:20.849Z,99.90
2023-04-01T02:17:49.000Z,99.90
2023-04-01T02:20:20.532Z,99.90
2023-04-01T02:22:57.580Z,99.90
2023-04-01T02:25:36.505Z,99.90
2023-04-01T02:28:07.516Z,99.90
2023-04-01T02:30:37.477Z,99.90
2023-04-01T02:33:06.397Z,99.90
2023-04-01T02:35:42.629Z,99.90
2023-04-01T02:38:10.100Z,99.90
2023-04-01T02:40:57.629Z,99.90
2023-04-01T02:43:24.730Z,99.90
2023-04-01T02:45:51.550Z,99.90
2023-04-01T02:48:18.384Z,99.90
2023-04-01T02:50:45.330Z,99.90
2023-04-01T02:53:12.986Z,99.90
2023-04-01T02:55:39.866Z,99.90
2023-04-01T02:58:07.178Z,99.90
2023-04-01T03:00:34.386Z,99.90
2023-04-01T03:03:01.557Z,99.90
2023-04-01T03:05:28.501Z,99.90
2023-04-01T03:07:56.373Z,99.90
2023-04-01T03:10:23.613Z,99.90
2023-04-01T03:12:50.426Z,99.90
2023-04-01T03:15:17.650Z,99.90
2023-04-01T03:17:44.986Z,99.90
2023-04-01T03:20:12.775Z,99.90
2023-04-01T03:22:42.699Z,99.90
2023-04-01T03:25:12.020Z,99.90
2023-04-01T03:27:39.469Z,99.90
2023-04-01T03:30:07.449Z,99.90
2023-04-01T03:32:34.836Z,99.90
2023-04-01T03:35:01.841Z,99.90
2023-04-01T03:37:28.768Z,99.90
2023-04-01T03:39:55.883Z,99.90
2023-04-01T03:42:23.239Z,99.90
2023-04-01T03:44:50.052Z,99.90
2023-04-01T03:47:16.889Z,99.90
2023-04-01T03:49:43.720Z,99.90
2023-04-01T03:52:12.165Z,99.90
2023-04-01T03:54:39.553Z,99.90
2023-04-01T03:57:06.648Z,99.90
2023-04-01T03:59:34.048Z,99.90
2023-04-01T04:02:01.335Z,99.90
2023-04-01T04:04:28.590Z,99.90
2023-04-01T04:06:56.026Z,99.90
2023-04-01T04:09:23.526Z,99.90
2023-04-01T04:11:51.139Z,99.90
2023-04-01T04:14:18.220Z,99.90
2023-04-01T04:16:45.478Z,99.90
2023-04-01T04:19:12.367Z,99.90
2023-04-01T04:21:40.301Z,99.90
2023-04-01T04:24:07.397Z,99.90
2023-04-01T04:26:34.685Z,99.90
2023-04-01T04:29:02.313Z,99.90
2023-04-01T04:31:29.614Z,99.90
2023-04-01T04:33:57.192Z,99.90
2023-04-01T04:36:24.544Z,99.90
2023-04-01T04:38:52.341Z,99.90
2023-04-01T04:41:20.323Z,99.90
2023-04-01T04:43:57.513Z,99.90
2023-04-01T04:46:25.046Z,99.90
2023-04-01T04:48:52.075Z,99.90
2023-04-01T04:51:20.738Z,99.90
2023-04-01T04:53:47.895Z,99.90
2023-04-01T04:56:19.524Z,99.90
2023-04-01T04:58:46.707Z,99.90
2023-04-01T05:01:16.339Z,99.90
2023-04-01T05:03:43.850Z,99.90
2023-04-01T05:06:14.616Z,99.90
2023-04-01T05:08:42.746Z,99.90
2023-04-01T05:11:18.552Z,99.90
2023-04-01T05:13:46.632Z,99.90
2023-04-01T05:16:17.011Z,99.90
2023-04-01T05:18:44.353Z,99.90
2023-04-01T05:21:13.992Z,99.90
2023-04-01T05:23:41.777Z,99.90
2023-04-01T05:26:11.226Z,99.90
2023-04-01T05:28:39.326Z,99.90
2023-04-01T05:31:07.689Z,99.90
2023-04-01T05:33:34.656Z,99.90
2023-04-01T05:36:15.616Z,99.90
2023-04-01T05:38:47.381Z,99.90
2023-04-01T05:41:15.504Z,99.90
2023-04-01T05:43:43.097Z,99.90
2023-04-01T05:46:10.323Z,99.90
2023-04-01T05:48:38.686Z,99.90
2023-04-01T05:51:06.156Z,99.90
2023-04-01T05:53:33.616Z,99.90
2023-04-01T05:56:04.492Z,99.90
2023-04-01T05:58:31.994Z,99.90
2023-04-01T06:01:16.274Z,99.90
2023-04-01T06:03:43.998Z,99.90
2023-04-01T06:06:26.243Z,99.90
2023-04-01T06:08:54.565Z,99.90
2023-04-01T06:11:39.819Z,99.90
2023-04-01T06:14:25.133Z,99.90
2023-04-01T06:17:24.490Z,99.90
2023-04-01T06:20:23.944Z,99.90
2023-04-01T06:22:57.336Z,99.90
2023-04-01T06:25:33.421Z,99.90
2023-04-01T06:28:03.972Z,99.90
2023-04-01T06:30:33.544Z,99.90
2023-04-01T06:33:31.309Z,99.90
2023-04-01T06:36:10.427Z,99.90
2023-04-01T06:39:17.679Z,99.90
2023-04-01T06:41:59.177Z,99.90
2023-04-01T06:44:27.134Z,99.90
2023-04-01T06:47:16.882Z,99.90
2023-04-01T06:49:50.875Z,99.90
2023-04-01T06:52:26.141Z,99.90
2023-04-01T06:55:07.088Z,99.90
2023-04-01T06:57:42.142Z,99.90
2023-04-01T07:00:18.025Z,99.90
2023-04-01T07:03:00.443Z,99.90
2023-04-01T07:05:31.851Z,99.90
2023-04-01T07:08:03.504Z,99.90
2023-04-01T07:10:52.957Z,99.90
2023-04-01T07:13:30.314Z,99.90
2023-04-01T07:16:07.115Z,99.90
2023-04-01T07:18:42.861Z,99.90
2023-04-01T07:21:23.042Z,99.90
2023-04-01T07:23:51.748Z,99.90
2023-04-01T07:26:23.603Z,99.90
2023-04-01T07:28:52.994Z,99.90
2023-04-01T07:31:26.521Z,99.90
2023-04-01T07:34:06.199Z,99.90
2023-04-01T07:37:11.313Z,99.90
2023-04-01T07:40:10.504Z,99.90
2023-04-01T07:43:02.408Z,99.90
2023-04-01T07:45:35.650Z,99.90
2023-04-01T07:48:14.850Z,99.90
2023-04-01T07:50:56.616Z,99.90
2023-04-01T07:53:28.988Z,99.90
2023-04-01T07:56:27.976Z,99.90
2023-04-01T07:59:03.438Z,99.90
2023-04-01T08:01:50.534Z,99.90
2023-04-01T08:04:31.992Z,99.90
2023-04-01T08:07:11.155Z,99.90
2023-04-01T08:10:00.281Z,99.90
2023-04-01T08:12:48.623Z,99.90
2023-04-01T08:15:37.236Z,99.90
2023-04-01T08:18:18.194Z,99.90
2023-04-01T08:20:52.093Z,99.90
2023-04-01T08:23:27.202Z,99.90
2023-04-01T08:26:06.209Z,99.90
2023-04-01T08:28:45.986Z,99.90
2023-04-01T08:31:31.254Z,99.90
2023-04-01T08:33:58.429Z,99.90
2023-04-01T08:36:35.178Z,99.90
2023-04-01T08:39:15.487Z,99.90
2023-04-01T08:41:54.124Z,99.90
2023-04-01T08:44:39.518Z,99.90
2023-04-01T08:47:44.130Z,99.90
2023-04-01T08:50:29.842Z,99.90
2023-04-01T08:53:19.963Z,99.90
2023-04-01T08:56:01.683Z,99.90
2023-04-01T08:58:34.789Z,99.90
2023-04-01T09:01:16.742Z,99.90
2023-04-01T09:03:53.141Z,99.90
2023-04-01T09:06:44.577Z,99.90
2023-04-01T09:09:33.108Z,99.90
2023-04-01T09:12:29.510Z,99.90
2023-04-01T09:15:15.383Z,99.90
2023-04-01T09:17:57.208Z,99.90
2023-04-01T09:20:30.130Z,99.90
2023-04-01T09:23:14.887Z,99.90
2023-04-01T09:26:13.907Z,99.90
2023-04-01T09:28:46.543Z,99.90
2023-04-01T09:31:50.431Z,99.90
2023-04-01T09:34:52.062Z,99.90
2023-04-01T09:37:31.974Z,99.90
2023-04-01T09:40:11.339Z,99.90
2023-04-01T09:43:15.687Z,99.90
2023-04-01T09:45:58.635Z,99.90
2023-04-01T09:48:56.618Z,99.90
2023-04-01T09:51:57.522Z,99.90
2023-04-01T09:54:30.138Z,99.90
2023-04-01T09:57:08.924Z,99.90
2023-04-01T09:59:44.945Z,99.90
2023-04-01T10:02:45.400Z,99.90
2023-04-01T10:05:35.108Z,99.90
2023-04-01T10:08:39.575Z,99.90
2023-04-01T10:11:33.646Z,99.90
2023-04-01T10:14:25.373Z,99.90
2023-04-01T10:17:23.126Z,99.90
2023-04-01T10:20:28.851Z,99.90
2023-04-01T10:23:16.918Z,99.90
2023-04-01T10:26:12.909Z,99.90
2023-04-01T10:28:58.305Z,99.90
2023-04-01T10:31:46.348Z,99.90
2023-04-01T10:34:31.492Z,99.90
2023-04-01T10:36:59.726Z,99.90
2023-04-01T10:39:53.328Z,99.90
2023-04-01T10:42:57.979Z,99.90
2023-04-01T10:45:44.084Z,99.90
2023-04-01T10:48:42.317Z,99.90
2023-04-01T10:51:19.082Z,99.90
2023-04-01T10:54:07.375Z,99.90
2023-04-01T10:56:48.023Z,99.90
2023-04-01T10:59:48.599Z,99.90
2023-04-01T11:02:18.454Z,99.90
2023-04-01T11:05:11.011Z,99.90
2023-04-01T11:07:40.974Z,99.90
2023-04-01T11:10:22.968Z,99.90
2023-04-01T11:13:07.651Z,99.90
2023-04-01T11:16:22.178Z,99.90
2023-04-01T11:19:01.180Z,99.90
2023-04-01T11:21:41.363Z,99.90
2023-04-01T11:24:22.645Z,99.90
2023-04-01T11:27:10.985Z,99.90
2023-04-01T11:30:15.873Z,99.90
2023-04-01T11:32:55.491Z,99.90
2023-04-01T11:36:02.874Z,99.90
2023-04-01T11:38:54.748Z,99.90
2023-04-01T11:41:54.994Z,99.90
2023-04-01T11:44:30.478Z,99.90
2023-04-01T11:47:20.149Z,99.90
2023-04-01T11:49:58.878Z,99.90
2023-04-01T11:52:43.380Z,99.90
2023-04-01T11:55:25.282Z,99.90
2023-04-01T11:58:19.776Z,99.90
2023-04-01T12:01:24.257Z,99.90
2023-04-01T12:04:00.290Z,99.90
2023-04-01T12:06:42.090Z,99.90
2023-04-01T12:09:16.068Z,99.90
2023-04-01T12:12:13.234Z,99.90
2023-04-01T12:15:14.961Z,99.90
2023-04-01T12:17:56.389Z,99.90
2023-04-01T12:20:31.241Z,99.90
2023-04-01T12:23:06.717Z,99.90
2023-04-01T12:25:57.777Z,99.90
2023-04-01T12:28:54.144Z,99.90
2023-04-01T12:31:32.512Z,99.90
2023-04-01T12:34:23.705Z,99.90
2023-04-01T12:37:21.294Z,99.90
2023-04-01T12:40:21.084Z,99.90
2023-04-01T12:43:06.052Z,99.90
2023-04-01T12:45:55.028Z,99.90
2023-04-01T12:49:08.611Z,99.90
2023-04-01T12:51:54.248Z,99.90
2023-04-01T12:54:23.767Z,99.90
2023-04-01T12:57:15.756Z,99.90
2023-04-01T12:59:59.085Z,99.90
2023-04-01T13:02:47.315Z,99.90
2023-04-01T13:05:31.952Z,99.90
2023-04-01T13:08:25.301Z,99.90
2023-04-01T13:11:09.753Z,99.90
2023-04-01T13:13:55.202Z,99.90
2023-04-01T13:16:25.398Z,99.90
2023-04-01T13:19:14.819Z,99.90
2023-04-01T13:21:52.383Z,99.90
2023-04-01T13:24:28.072Z,99.90
2023-04-01T13:27:31.581Z,99.90
2023-04-01T13:30:06.739Z,99.90
2023-04-01T13:33:12.392Z,99.90
2023-04-01T13:36:02.058Z,99.90
2023-04-01T13:38:29.263Z,99.90
2023-04-01T13:41:03.887Z,99.90
2023-04-01T13:44:08.992Z,99.90
2023-04-01T13:47:02.584Z,99.90
2023-04-01T13:49:54.276Z,99.90
2023-04-01T13:53:02.505Z,99.50
2023-04-01T13:56:00.253Z,99.20
2023-04-01T13:58:39.234Z,98.70
2023-04-01T14:01:30.127Z,97.90
2023-04-01T14:04:06.041Z,97.50
2023-04-01T14:06:41.293Z,97.40
2023-04-01T14:09:13.896Z,97.30
2023-04-01T14:12:02.076Z,95.30
2023-04-01T14:14:44.448Z,94.30
2023-04-01T14:17:51.077Z,93.50
2023-04-01T14:20:41.353Z,92.40
2023-04-01T14:23:26.270Z,91.50
2023-04-01T14:26:16.107Z,91.40
2023-04-01T14:28:46.673Z,90.50
2023-04-01T14:31:32.102Z,90.90
2023-04-01T14:34:07.882Z,89.30
2023-04-01T14:36:45.135Z,87.90
2023-04-01T14:39:44.653Z,86.20
2023-04-01T14:42:41.969Z,85.90
2023-04-01T14:45:26.052Z,87.00
2023-04-01T14:48:14.681Z,86.30
2023-04-01T14:50:48.853Z,84.50
2023-04-01T14:53:24.710Z,82.10
2023-04-01T14:55:54.830Z,80.60
2023-04-01T14:58:26.255Z,80.50
2023-04-01T15:01:07.143Z,78.30
2023-04-01T15:03:41.300Z,77.10
2023-04-01T15:06:38.377Z,74.70
2023-04-01T15:09:26.113Z,90.00
2023-04-01T15:12:08.422Z,75.00
2023-04-01T15:15:02.077Z,73.60
2023-04-01T15:17:47.801Z,74.10
2023-04-01T15:20:48.163Z,87.00
2023-04-01T15:23:41.244Z,71.90
2023-04-01T15:26:46.019Z,70.30
2023-04-01T15:29:12.938Z,69.40
2023-04-01T15:31:45.470Z,68.00
2023-04-01T15:34:49.860Z,66.50
2023-04-01T15:37:55.427Z,62.60
2023-04-01T15:40:40.467Z,61.00
2023-04-01T15:43:09.956Z,64.00
2023-04-01T15:45:59.249Z,62.70
2023-04-01T15:48:50.823Z,64.40
2023-04-01T15:51:31.445Z,68.70
2023-04-01T15:54:15.865Z,74.50
2023-04-01T15:57:20.549Z,76.80
2023-04-01T16:00:18.597Z,79.40
2023-04-01T16:02:52.143Z,89.70
2023-04-01T16:05:51.649Z,90.40
2023-04-01T16:09:03.898Z,92.70
2023-04-01T16:11:39.853Z,95.40
2023-04-01T16:14:45.565Z,96.00
2023-04-01T16:17:30.679Z,96.80
2023-04-01T16:20:13.263Z,99.90
2023-04-01T16:22:49.938Z,99.10
2023-04-01T16:25:20.062Z,99.90
2023-04-01T16:27:46.817Z,99.90
2023-04-01T16:30:43.904Z,99.90
2023-04-01T16:33:13.926Z,99.90
2023-04-01T16:36:16.525Z,99.90
2023-04-01T16:38:53.250Z,99.90
2023-04-01T16:41:40.988Z,99.90
2023-04-01T16:44:23.894Z,99.90
2023-04-01T16:46:57.324Z,99.90
2023-04-01T16:50:06.257Z,99.90
2023-04-01T16:52:51.930Z,99.90
2023-04-01T16:55:21.344Z,99.90
2023-04-01T16:57:57.779Z,99.90
2023-04-01T17:00:52.605Z,99.90
2023-04-01T17:03:33.109Z,99.90
2023-04-01T17:06:35.569Z,99.90
2023-04-01T17:09:46.890Z,99.90
2023-04-01T17:12:32.271Z,99.90
2023-04-01T17:15:36.534Z,99.90
2023-04-01T17:18:15.471Z,99.90
2023-04-01T17:20:50.018Z,99.90
2023-04-01T17:23:38.702Z,99.90
2023-04-01T17:26:17.640Z,99.90
2023-04-01T17:29:12.708Z,99.90
2023-04-01T17:32:04.093Z,99.90
2023-04-01T17:34:53.470Z,99.90
2023-04-01T17:37:40.358Z,99.90
2023-04-01T17:40:22.368Z,99.90
2023-04-01T17:43:22.377Z,99.90
2023-04-01T17:45:56.901Z,99.90
2023-04-01T17:48:55.396Z,99.90
2023-04-01T17:51:37.499Z,99.90
2023-04-01T17:54:38.305Z,99.90
2023-04-01T17:57:24.518Z,99.90
2023-04-01T18:00:04.653Z,99.90
2023-04-01T18:02:46.595Z,99.90
2023-04-01T18:05:19.823Z,99.90
2023-04-01T18:08:21.259Z,99.90
2023-04-01T18:10:58.819Z,99.90
2023-04-01T18:13:52.049Z,99.90
2023-04-01T18:16:24.945Z,99.90
2023-04-01T18:19:19.646Z,99.90
2023-04-01T18:21:48.406Z,99.90
2023-04-01T18:24:21.253Z,99.90
2023-04-01T18:27:13.739Z,99.90
2023-04-01T18:29:42.749Z,99.90
2023-04-01T18:32:43.498Z,99.90
2023-04-01T18:35:54.274Z,99.90
2023-04-01T18:38:43.007Z,99.90
2023-04-01T18:41:27.275Z,99.90
2023-04-01T18:44:39.318Z,99.90
2023-04-01T18:47:44.646Z,99.90
2023-04-01T18:50:37.780Z,99.90
2023-04-01T18:53:15.305Z,99.90
2023-04-01T18:55:50.494Z,99.90
2023-04-01T18:58:33.245Z,99.90
2023-04-01T19:01:20.737Z,99.90
2023-04-01T19:04:11.282Z,99.90
2023-04-01T19:07:19.927Z,99.90
2023-04-01T19:09:51.319Z,99.90
2023-04-01T19:12:30.349Z,99.90
2023-04-01T19:15:00.000Z,99.90
2023-04-01T19:17:48.113Z,99.90
2023-04-01T19:20:30.857Z,99.90
2023-04-01T19:23:14.483Z,99.90
2023-04-01T19:25:48.410Z,99.90
2023-04-01T19:28:27.174Z,99.90
2023-04-01T19:31:24.688Z,99.90
2023-04-01T19:34:22.469Z,99.90
2023-04-01T19:36:56.008Z,99.90
2023-04-01T19:39:43.338Z,99.90
2023-04-01T19:42:41.419Z,99.90
2023-04-01T19:45:23.788Z,99.90
2023-04-01T19:48:15.872Z,99.90
2023-04-01T19:51:07.980Z,99.90
2023-04-01T19:53:59.622Z,99.90
2023-04-01T19:56:40.387Z,99.90
2023-04-01T19:59:14.613Z,99.90
2023-04-01T20:01:59.483Z,99.90
2023-04-01T20:04:42.039Z,99.90
2023-04-01T20:07:19.873Z,99.90
2023-04-01T20:09:47.475Z,99.90
2023-04-01T20:12:32.288Z,99.90
2023-04-01T20:15:01.742Z,99.90
2023-04-01T20:17:33.426Z,99.90
2023-04-01T20:20:09.233Z,99.90
2023-04-01T20:22:45.800Z,99.90
2023-04-01T20:25:27.480Z,99.90
2023-04-01T20:28:24.155Z,99.90
2023-04-01T20:31:29.559Z,99.90
2023-04-01T20:34:11.607Z,99.90
2023-04-01T20:36:59.446Z,99.90
2023-04-01T20:39:33.324Z,99.90
2023-04-01T20:42:03.506Z,99.90
2023-04-01T20:44:43.514Z,99.90
2023-04-01T20:47:36.449Z,99.90
2023-04-01T20:50:42.301Z,99.90
2023-04-01T20:53:44.277Z,99.90
2023-04-01T20:56:32.657Z,99.90
2023-04-01T20:59:37.710Z,99.90
2023-04-01T21:02:26.244Z,99.90
2023-04-01T21:05:26.910Z,99.90
2023-04-01T21:08:20.761Z,99.90
2023-04-01T21:11:11.403Z,99.90
2023-04-01T21:14:02.534Z,99.90
2023-04-01T21:16:38.708Z,99.90
2023-04-01T21:19:24.077Z,99.90
2023-04-01T21:22:12.587Z,99.90
2023-04-01T21:24:58.295Z,99.90
2023-04-01T21:27:39.967Z,99.90
2023-04-01T21:30:16.068Z,99.90
2023-04-01T21:33:17.486Z,99.90
2023-04-01T21:36:08.978Z,99.90
2023-04-01T21:38:56.791Z,99.90
2023-04-01T21:41:41.815Z,99.90
2023-04-01T21:44:21.044Z,99.90
2023-04-01T21:47:11.253Z,99.90
2023-04-01T21:50:09.354Z,99.90
2023-04-01T21:53:27.494Z,99.90
2023-04-01T21:56:18.370Z,99.90
2023-04-01T21:59:09.954Z,99.90
2023-04-01T22:02:12.018Z,99.90
2023-04-01T22:04:44.579Z,99.90
2023-04-01T22:07:13.837Z,99.90
2023-04-01T22:10:36.154Z,99.90
2023-04-01T22:13:17.868Z,99.90
2023-04-01T22:16:04.190Z,99.90
2023-04-01T22:19:14.250Z,99.90
2023-04-01T22:21:45.948Z,99.90
2023-04-01T22:24:44.449Z,99.90
2023-04-01T22:27:29.274Z,99.90
2023-04-01T22:30:07.628Z,99.90
2023-04-01T22:32:51.079Z,99.90
2023-04-01T22:35:24.510Z,99.90
2023-04-01T22:38:10.520Z,99.90
2023-04-01T22:40:56.515Z,99.90
2023-04-01T22:43:37.212Z,99.90
2023-04-01T22:46:23.323Z,99.90
2023-04-01T22:49:18.848Z,99.90
2023-04-01T22:51:55.033Z,99.90
2023-04-01T22:54:30.742Z,99.90
2023-04-01T22:57:15.531Z,99.90
2023-04-01T22:59:49.713Z,99.90
2023-04-01T23:02:22.899Z,99.90
2023-04-01T23:05:00.260Z,99.90
2023-04-01T23:07:47.964Z,99.90
2023-04-01T23:10:39.473Z,99.90
2023-04-01T23:13:09.989Z,99.90
2023-04-01T23:15:37.981Z,99.90
2023-04-01T23:18:19.549Z,99.90
2023-04-01T23:21:18.716Z,99.90
2023-04-01T23:24:00.978Z,99.90
2023-04-01T23:26:40.440Z,99.90
2023-04-01T23:29:16.058Z,99.90
2023-04-01T23:31:45.452Z,99.90
2023-04-01T23:34:12.319Z,99.90
2023-04-01T23:36:44.943Z,99.90
2023-04-01T23:39:28.001Z,99.90
2023-04-01T23:41:59.567Z,99.90
2023-04-01T23:44:28.292Z,99.90
2023-04-01T23:46:56.956Z,99.90
2023-04-01T23:49:45.486Z,99.90
2023-04-01T23:52:23.421Z,99.90
2023-04-01T23:55:12.950Z,99.90
2023-04-01T23:57:40.897Z,99.90
